AirNav   TITAN Aviation Fuels
 
 1050 users online  

2CO4 Presbyterian/St Luke's Medical Center Heliport
Denver, Colorado, USA

GOING TO DENVER?


FAA INFORMATION EFFECTIVE 08 SEPTEMBER 2022

Location

FAA Identifier: 2CO4
Lat/Long: 39-44-52.0800N 104-58-04.5100W
39-44.868000N 104-58.075167W
39.7478000,-104.9679194
(estimated)
Elevation: 5291 ft. / 1613 m (estimated)
Variation: 12E (1985)
Time zone: UTC -6 (UTC -7 during Standard Time)
Zip code: 80205

Heliport Operations

Heliport use: Private use, MEDICAL USE.
Activation date: 08/1990
Control tower: no
ARTCC: DENVER CENTER
FSS: DENVER FLIGHT SERVICE STATION
Attendance: CONTINUOUS
Wind indicator: yes
Segmented circle: no

Heliport Communications

UNICOM: 123.075
WX AWOS-3 at BJC (12 nm NW): PHONE 720-887-8067
WX ASOS at APA (12 nm SE): PHONE 720-873-2799
WX ASOS at DEN (15 nm NE): PHONE 303-342-1920
WX AWOS-3 at EIK (16 nm N): 133.825 (303-604-4339)
WX AWOS-3 at CFO (20 nm E): 119.025 (303-261-9104)

Nearby radio navigation aids

VOR radial/distance  VOR name  Freq  Var
BJCr131/12.7JEFFCO VOR/DME115.4011E
DENr247/14.7DENVER VOR/DME117.9008E
FQFr271/16.4FALCON VORTAC116.3011E
DVVr233/18.1MILE HIGH VORTAC114.7008E

Heliport Services

Runway Information

Helipad H1

Dimensions: 40 x 40 ft. / 12 x 12 m
Surface: concrete
Latitude: 39-44.868000N
Longitude: 104-58.075167W
Elevation: 5291.0 ft.
Traffic pattern: leftleft

Heliport Ownership and Management from official FAA records

Ownership: Privately-owned
Owner: PRESBYTERIAN/ST LUKE'S MC
1719 E 19TH AVE
DENVER, CO 80219
Phone 303-869-2152
Manager: BRYAN PENDER
1719 E. 19TH AVE
DENVER, CO 80218
Phone 720-754-6413

Additional Remarks

FOR CD CTC DENVER APCH AT 303-342-1916.

Instrument Procedures

There are no published instrument procedures at 2CO4.

Some nearby airports with instrument procedures:

KBKF - Buckley Space Force Base (10 nm E)
KBJC - Rocky Mountain Metro Airport (12 nm NW)
KAPA - Centennial Airport (12 nm SE)
KDEN - Denver International Airport (15 nm NE)
KEIK - Erie Municipal Airport (16 nm N)
KCFO - Colorado Air and Space Port Airport (20 nm E)
 
Loc | Ops | Rwys | IFR | FBO | Links
Com | Nav | Svcs | Stats | Notes

AirBoss

 
Area around 2CO4 (Presbyterian/St Luke's Medical Center Heliport)
 
Road maps at: MapQuest Bing Google
 
Aerial photo
No photo
 
Sectional chart

 
Airport distance calculator
Flying to Presbyterian/St Luke's Medical Center Heliport? Find the distance to fly.

From to 2CO4

Sunrise and sunset
Times for 24-Sep-2022
 Local
(UTC-6)
 Zulu
(UTC)
Morning civil twilight06:2312:23
Sunrise06:5012:50
Sunset18:5300:53
Evening civil twilight19:2001:20

Current date and time
Zulu (UTC)  24-Sep-2022 22:21:19
Local (UTC-6)  24-Sep-2022 16:21:19
 
METAR
KBKF 
10nm E 
242158Z 01008KT 10SM FEW100 28/M04 A3019 RMK AO2A SLP157 T02761044
KAPA 
12nm SE 
242153Z 03008KT 10SM CLR 26/M04 A3020 RMK AO2 SLP173 T02611044
KBJC 
12nm NW 
242145Z VRB04KT 10SM SKC 27/M03 A3020
KDEN 
16nm E 
242153Z VRB05KT 10SM FEW100 27/M05 A3018 RMK AO2 SLP148 T02671050
KEIK 
16nm N 
242155Z AUTO 08007KT 10SM CLR 28/M05 A3016 RMK AO2 T02771047 PWINO
KCFO 
20nm E 
242047Z 34006KT 10SM SKC 29/M09 A3020
TAF
KBKF 
10nm E 
241700Z 2417/2523 VRB06KT 9999 SKC 510023 QNH3021INS TX24/2422Z TN07/2512Z
KAPA 
12nm SE 
241740Z 2418/2518 VRB05KT P6SM FEW100 FEW220 FM242200 08006KT P6SM FEW220 FM250700 01006KT P6SM FEW220 FM251100 19006KT P6SM SKC FM251700 04006KT P6SM SKC
KBJC 
12nm NW 
241740Z 2418/2518 VRB03KT P6SM SKC FM241900 07007KT P6SM SKC FM250500 35005KT P6SM SKC
KDEN 
16nm E 
241740Z 2418/2524 27006KT P6SM FEW100 FEW220 FM242000 05007KT P6SM FEW100 FEW220 FM250000 09006KT P6SM FEW220 FM250600 01006KT P6SM FEW220 FM251000 20006KT P6SM SKC FM251700 02007KT P6SM SKC FM252000 07007KT P6SM FEW120
NOTAMs
Click for the latest NOTAMs
NOTAMs are issued by the DoD/FAA and will open in a separate window not controlled by AirNav.

 

 
 

Would you like to see your business listed on this page?

 If your business provides an interesting product or service to pilots, flight crews, aircraft, or users of the Presbyterian/St Luke's Medical Center Heliport, you should consider listing it here.  To start the listing process, click on the button below
 
Add a business
 

Other Pages about Presbyterian/St Luke's Medical Center Heliport

Update a link
 
Copyright © AirNav, LLC. All rights reserved. Privacy Policy  Contact